sensor_id;sensor_type;location;lat;lon;timestamp;P1;durP1;ratioP1;P2;durP2;ratioP2
31091;SDS011;67728;53.122;12.776;2023-12-22T00:00:49;670.50;;;233.10;;
31091;SDS011;67728;53.122;12.776;2023-12-22T00:02:21;662.30;;;212.20;;
31091;SDS011;67728;53.122;12.776;2023-12-22T00:03:53;669.83;;;219.33;;
31091;SDS011;67728;53.122;12.776;2023-12-22T00:05:24;667.40;;;221.60;;
31091;SDS011;67728;53.122;12.776;2023-12-22T00:06:57;664.97;;;217.47;;
31091;SDS011;67728;53.122;12.776;2023-12-22T00:08:28;663.13;;;212.50;;
31091;SDS011;67728;53.122;12.776;2023-12-22T00:09:59;665.47;;;218.97;;
31091;SDS011;67728;53.122;12.776;2023-12-22T00:11:30;661.87;;;216.30;;
31091;SDS011;67728;53.122;12.776;2023-12-22T00:13:01;662.90;;;213.80;;
31091;SDS011;67728;53.122;12.776;2023-12-22T00:14:32;712.43;;;222.73;;
31091;SDS011;67728;53.122;12.776;2023-12-22T00:16:04;663.53;;;210.50;;
31091;SDS011;67728;53.122;12.776;2023-12-22T00:17:35;661.10;;;222.17;;
31091;SDS011;67728;53.122;12.776;2023-12-22T00:19:06;662.50;;;221.97;;
31091;SDS011;67728;53.122;12.776;2023-12-22T00:20:37;662.00;;;220.60;;
31091;SDS011;67728;53.122;12.776;2023-12-22T00:22:10;664.57;;;224.60;;
31091;SDS011;67728;53.122;12.776;2023-12-22T00:23:41;668.73;;;225.47;;
31091;SDS011;67728;53.122;12.776;2023-12-22T00:25:13;660.23;;;221.03;;
31091;SDS011;67728;53.122;12.776;2023-12-22T00:26:43;667.30;;;212.40;;
31091;SDS011;67728;53.122;12.776;2023-12-22T00:28:15;660.83;;;220.43;;
31091;SDS011;67728;53.122;12.776;2023-12-22T00:29:46;702.63;;;215.07;;
31091;SDS011;67728;53.122;12.776;2023-12-22T00:31:18;656.07;;;212.43;;
31091;SDS011;67728;53.122;12.776;2023-12-22T00:32:48;664.30;;;213.20;;
31091;SDS011;67728;53.122;12.776;2023-12-22T00:34:21;656.63;;;209.50;;
31091;SDS011;67728;53.122;12.776;2023-12-22T00:35:52;660.07;;;210.30;;
31091;SDS011;67728;53.122;12.776;2023-12-22T00:37:25;659.70;;;212.93;;
31091;SDS011;67728;53.122;12.776;2023-12-22T00:38:56;660.33;;;216.40;;
31091;SDS011;67728;53.122;12.776;2023-12-22T00:40:27;656.23;;;211.27;;
31091;SDS011;67728;53.122;12.776;2023-12-22T00:41:59;659.60;;;216.83;;
31091;SDS011;67728;53.122;12.776;2023-12-22T00:43:31;658.97;;;219.10;;
31091;SDS011;67728;53.122;12.776;2023-12-22T00:45:02;662.67;;;212.70;;
31091;SDS011;67728;53.122;12.776;2023-12-22T00:46:34;662.67;;;221.70;;
31091;SDS011;67728;53.122;12.776;2023-12-22T00:48:04;661.23;;;212.57;;
31091;SDS011;67728;53.122;12.776;2023-12-22T00:49:36;667.97;;;215.70;;
31091;SDS011;67728;53.122;12.776;2023-12-22T00:51:07;662.50;;;214.73;;
31091;SDS011;67728;53.122;12.776;2023-12-22T00:52:40;672.37;;;229.97;;
31091;SDS011;67728;53.122;12.776;2023-12-22T00:54:10;678.57;;;239.63;;
31091;SDS011;67728;53.122;12.776;2023-12-22T00:55:42;672.00;;;231.33;;
31091;SDS011;67728;53.122;12.776;2023-12-22T00:57:12;668.53;;;224.33;;
31091;SDS011;67728;53.122;12.776;2023-12-22T00:58:44;671.37;;;231.97;;
31091;SDS011;67728;53.122;12.776;2023-12-22T01:00:15;673.07;;;233.33;;
31091;SDS011;67728;53.122;12.776;2023-12-22T01:01:47;672.23;;;229.40;;
31091;SDS011;67728;53.122;12.776;2023-12-22T01:03:18;670.43;;;233.13;;
31091;SDS011;67728;53.122;12.776;2023-12-22T01:04:49;718.33;;;238.47;;
31091;SDS011;67728;53.122;12.776;2023-12-22T01:06:21;667.53;;;220.23;;
31091;SDS011;67728;53.122;12.776;2023-12-22T01:07:53;664.73;;;216.30;;
31091;SDS011;67728;53.122;12.776;2023-12-22T01:09:24;663.73;;;214.83;;
31091;SDS011;67728;53.122;12.776;2023-12-22T01:10:55;669.27;;;221.07;;
31091;SDS011;67728;53.122;12.776;2023-12-22T01:12:27;672.17;;;225.73;;
31091;SDS011;67728;53.122;12.776;2023-12-22T01:13:58;660.03;;;224.63;;
31091;SDS011;67728;53.122;12.776;2023-12-22T01:15:29;663.67;;;225.50;;
31091;SDS011;67728;53.122;12.776;2023-12-22T01:17:00;663.23;;;221.13;;
31091;SDS011;67728;53.122;12.776;2023-12-22T01:18:31;663.40;;;214.43;;
31091;SDS011;67728;53.122;12.776;2023-12-22T01:20:04;686.40;;;207.50;;
31091;SDS011;67728;53.122;12.776;2023-12-22T01:21:35;668.07;;;215.23;;
31091;SDS011;67728;53.122;12.776;2023-12-22T01:23:08;659.93;;;205.20;;
31091;SDS011;67728;53.122;12.776;2023-12-22T01:24:38;664.53;;;216.37;;
31091;SDS011;67728;53.122;12.776;2023-12-22T01:26:13;661.57;;;211.37;;
31091;SDS011;67728;53.122;12.776;2023-12-22T01:27:43;665.57;;;218.33;;
31091;SDS011;67728;53.122;12.776;2023-12-22T01:29:16;662.70;;;220.70;;
31091;SDS011;67728;53.122;12.776;2023-12-22T01:30:46;661.60;;;216.30;;
31091;SDS011;67728;53.122;12.776;2023-12-22T01:32:18;657.83;;;213.43;;
31091;SDS011;67728;53.122;12.776;2023-12-22T01:33:49;658.57;;;210.30;;
31091;SDS011;67728;53.122;12.776;2023-12-22T01:35:21;660.37;;;213.27;;
31091;SDS011;67728;53.122;12.776;2023-12-22T01:36:51;660.53;;;215.27;;
31091;SDS011;67728;53.122;12.776;2023-12-22T01:38:25;663.93;;;218.97;;
31091;SDS011;67728;53.122;12.776;2023-12-22T01:39:55;711.13;;;221.77;;
31091;SDS011;67728;53.122;12.776;2023-12-22T01:41:28;670.67;;;222.90;;
31091;SDS011;67728;53.122;12.776;2023-12-22T01:42:59;661.97;;;209.87;;
31091;SDS011;67728;53.122;12.776;2023-12-22T01:44:32;664.47;;;215.10;;
31091;SDS011;67728;53.122;12.776;2023-12-22T01:46:02;660.03;;;209.07;;
31091;SDS011;67728;53.122;12.776;2023-12-22T01:47:35;661.37;;;205.00;;
31091;SDS011;67728;53.122;12.776;2023-12-22T01:49:06;669.33;;;220.27;;
31091;SDS011;67728;53.122;12.776;2023-12-22T01:50:39;663.60;;;215.27;;
31091;SDS011;67728;53.122;12.776;2023-12-22T01:52:10;662.37;;;215.73;;
31091;SDS011;67728;53.122;12.776;2023-12-22T01:53:43;667.93;;;220.30;;
31091;SDS011;67728;53.122;12.776;2023-12-22T01:55:15;682.33;;;218.37;;
31091;SDS011;67728;53.122;12.776;2023-12-22T01:56:48;660.40;;;209.80;;
31091;SDS011;67728;53.122;12.776;2023-12-22T01:58:19;662.67;;;216.50;;
31091;SDS011;67728;53.122;12.776;2023-12-22T01:59:51;662.03;;;210.67;;
31091;SDS011;67728;53.122;12.776;2023-12-22T02:01:22;654.13;;;210.87;;
31091;SDS011;67728;53.122;12.776;2023-12-22T02:02:55;670.50;;;212.83;;
31091;SDS011;67728;53.122;12.776;2023-12-22T02:04:25;669.03;;;227.97;;
31091;SDS011;67728;53.122;12.776;2023-12-22T02:05:58;661.10;;;212.20;;
31091;SDS011;67728;53.122;12.776;2023-12-22T02:07:29;675.73;;;228.87;;
31091;SDS011;67728;53.122;12.776;2023-12-22T02:09:02;662.47;;;214.30;;
31091;SDS011;67728;53.122;12.776;2023-12-22T02:10:34;664.80;;;222.93;;
31091;SDS011;67728;53.122;12.776;2023-12-22T02:12:06;677.17;;;231.40;;
31091;SDS011;67728;53.122;12.776;2023-12-22T02:13:38;662.30;;;215.00;;
31091;SDS011;67728;53.122;12.776;2023-12-22T02:15:09;719.83;;;227.47;;
31091;SDS011;67728;53.122;12.776;2023-12-22T02:16:42;659.70;;;210.33;;
31091;SDS011;67728;53.122;12.776;2023-12-22T02:18:17;656.17;;;206.27;;
31091;SDS011;67728;53.122;12.776;2023-12-22T02:19:53;652.27;;;197.73;;
31091;SDS011;67728;53.122;12.776;2023-12-22T02:21:26;654.27;;;204.13;;
31091;SDS011;67728;53.122;12.776;2023-12-22T02:22:59;661.07;;;203.70;;
31091;SDS011;67728;53.122;12.776;2023-12-22T02:24:29;656.70;;;193.60;;
31091;SDS011;67728;53.122;12.776;2023-12-22T02:26:04;654.07;;;203.93;;
31091;SDS011;67728;53.122;12.776;2023-12-22T02:27:42;653.90;;;196.03;;
31091;SDS011;67728;53.122;12.776;2023-12-22T02:29:17;657.47;;;201.37;;
31091;SDS011;67728;53.122;12.776;2023-12-22T02:30:50;653.90;;;190.40;;
31091;SDS011;67728;53.122;12.776;2023-12-22T02:32:27;665.33;;;204.10;;
31091;SDS011;67728;53.122;12.776;2023-12-22T02:34:01;662.27;;;205.57;;
31091;SDS011;67728;53.122;12.776;2023-12-22T02:35:38;666.67;;;204.73;;
31091;SDS011;67728;53.122;12.776;2023-12-22T02:37:11;660.33;;;199.57;;
31091;SDS011;67728;53.122;12.776;2023-12-22T02:38:46;658.00;;;204.73;;
31091;SDS011;67728;53.122;12.776;2023-12-22T02:40:18;721.23;;;208.80;;
31091;SDS011;67728;53.122;12.776;2023-12-22T02:41:51;656.73;;;197.13;;
31091;SDS011;67728;53.122;12.776;2023-12-22T02:43:22;658.17;;;200.33;;
31091;SDS011;67728;53.122;12.776;2023-12-22T02:44:53;660.17;;;203.93;;
31091;SDS011;67728;53.122;12.776;2023-12-22T02:46:24;654.57;;;199.30;;
31091;SDS011;67728;53.122;12.776;2023-12-22T02:47:56;656.30;;;202.70;;
31091;SDS011;67728;53.122;12.776;2023-12-22T02:49:26;656.13;;;200.53;;
31091;SDS011;67728;53.122;12.776;2023-12-22T02:50:58;659.10;;;198.43;;
31091;SDS011;67728;53.122;12.776;2023-12-22T02:52:29;658.43;;;198.47;;
31091;SDS011;67728;53.122;12.776;2023-12-22T02:54:03;660.13;;;205.27;;
31091;SDS011;67728;53.122;12.776;2023-12-22T02:55:34;706.57;;;198.87;;
31091;SDS011;67728;53.122;12.776;2023-12-22T02:57:06;658.33;;;195.30;;
31091;SDS011;67728;53.122;12.776;2023-12-22T02:58:38;653.53;;;196.03;;
31091;SDS011;67728;53.122;12.776;2023-12-22T03:00:10;653.43;;;195.67;;
31091;SDS011;67728;53.122;12.776;2023-12-22T03:01:41;657.13;;;198.43;;
31091;SDS011;67728;53.122;12.776;2023-12-22T03:03:12;672.30;;;214.40;;
31091;SDS011;67728;53.122;12.776;2023-12-22T03:04:43;663.97;;;208.30;;
31091;SDS011;67728;53.122;12.776;2023-12-22T03:06:16;653.87;;;192.00;;
31091;SDS011;67728;53.122;12.776;2023-12-22T03:07:46;656.30;;;194.00;;
31091;SDS011;67728;53.122;12.776;2023-12-22T03:09:19;660.90;;;201.03;;
31091;SDS011;67728;53.122;12.776;2023-12-22T03:10:51;654.40;;;191.87;;
31091;SDS011;67728;53.122;12.776;2023-12-22T03:12:23;649.10;;;185.43;;
31091;SDS011;67728;53.122;12.776;2023-12-22T03:13:53;646.83;;;181.10;;
31091;SDS011;67728;53.122;12.776;2023-12-22T03:15:25;671.10;;;187.97;;
31091;SDS011;67728;53.122;12.776;2023-12-22T03:16:56;651.77;;;187.97;;
31091;SDS011;67728;53.122;12.776;2023-12-22T03:18:28;658.13;;;184.27;;
31091;SDS011;67728;53.122;12.776;2023-12-22T03:19:58;646.87;;;175.70;;
31091;SDS011;67728;53.122;12.776;2023-12-22T03:21:30;641.77;;;169.70;;
31091;SDS011;67728;53.122;12.776;2023-12-22T03:23:01;643.17;;;170.97;;
31091;SDS011;67728;53.122;12.776;2023-12-22T03:24:34;641.67;;;169.87;;
31091;SDS011;67728;53.122;12.776;2023-12-22T03:26:05;642.67;;;166.67;;
31091;SDS011;67728;53.122;12.776;2023-12-22T03:27:37;653.20;;;181.43;;
31091;SDS011;67728;53.122;12.776;2023-12-22T03:29:08;651.03;;;182.10;;
31091;SDS011;67728;53.122;12.776;2023-12-22T03:30:39;693.17;;;168.47;;
31091;SDS011;67728;53.122;12.776;2023-12-22T03:32:10;644.80;;;168.80;;
31091;SDS011;67728;53.122;12.776;2023-12-22T03:33:41;641.60;;;175.60;;
31091;SDS011;67728;53.122;12.776;2023-12-22T03:35:12;640.50;;;168.03;;
31091;SDS011;67728;53.122;12.776;2023-12-22T03:36:44;639.73;;;168.37;;
31091;SDS011;67728;53.122;12.776;2023-12-22T03:38:18;642.77;;;172.47;;
31091;SDS011;67728;53.122;12.776;2023-12-22T03:39:51;640.10;;;172.87;;
31091;SDS011;67728;53.122;12.776;2023-12-22T03:41:22;657.33;;;168.83;;
31091;SDS011;67728;53.122;12.776;2023-12-22T03:42:53;641.43;;;170.20;;
31091;SDS011;67728;53.122;12.776;2023-12-22T03:44:25;640.73;;;170.50;;
31091;SDS011;67728;53.122;12.776;2023-12-22T03:45:55;639.33;;;156.17;;
31091;SDS011;67728;53.122;12.776;2023-12-22T03:47:27;640.83;;;162.17;;
31091;SDS011;67728;53.122;12.776;2023-12-22T03:48:57;647.00;;;175.20;;
31091;SDS011;67728;53.122;12.776;2023-12-22T03:50:29;645.47;;;179.23;;
31091;SDS011;67728;53.122;12.776;2023-12-22T03:52:00;643.23;;;167.47;;
31091;SDS011;67728;53.122;12.776;2023-12-22T03:53:31;647.80;;;173.70;;
31091;SDS011;67728;53.122;12.776;2023-12-22T03:55:04;647.77;;;167.37;;
31091;SDS011;67728;53.122;12.776;2023-12-22T03:56:36;644.03;;;174.77;;
31091;SDS011;67728;53.122;12.776;2023-12-22T03:58:06;645.53;;;181.93;;
31091;SDS011;67728;53.122;12.776;2023-12-22T03:59:38;649.53;;;181.97;;
31091;SDS011;67728;53.122;12.776;2023-12-22T04:01:09;643.67;;;182.33;;
31091;SDS011;67728;53.122;12.776;2023-12-22T04:02:45;647.50;;;171.37;;
31091;SDS011;67728;53.122;12.776;2023-12-22T04:04:16;636.27;;;169.40;;
31091;SDS011;67728;53.122;12.776;2023-12-22T04:05:47;684.00;;;174.40;;
31091;SDS011;67728;53.122;12.776;2023-12-22T04:07:18;637.87;;;169.30;;
31091;SDS011;67728;53.122;12.776;2023-12-22T04:08:49;634.07;;;168.47;;
31091;SDS011;67728;53.122;12.776;2023-12-22T04:10:21;637.27;;;175.10;;
31091;SDS011;67728;53.122;12.776;2023-12-22T04:11:53;638.27;;;171.47;;
31091;SDS011;67728;53.122;12.776;2023-12-22T04:13:24;639.23;;;175.27;;
31091;SDS011;67728;53.122;12.776;2023-12-22T04:14:55;647.30;;;190.27;;
31091;SDS011;67728;53.122;12.776;2023-12-22T04:16:26;640.93;;;180.90;;
31091;SDS011;67728;53.122;12.776;2023-12-22T04:17:57;641.33;;;179.97;;
31091;SDS011;67728;53.122;12.776;2023-12-22T04:19:28;643.10;;;183.63;;
31091;SDS011;67728;53.122;12.776;2023-12-22T04:21:00;692.17;;;184.27;;
31091;SDS011;67728;53.122;12.776;2023-12-22T04:22:30;641.00;;;175.20;;
31091;SDS011;67728;53.122;12.776;2023-12-22T04:24:02;644.63;;;184.50;;
31091;SDS011;67728;53.122;12.776;2023-12-22T04:25:34;646.70;;;181.23;;
31091;SDS011;67728;53.122;12.776;2023-12-22T04:27:06;651.57;;;177.83;;
31091;SDS011;67728;53.122;12.776;2023-12-22T04:28:36;649.67;;;177.80;;
31091;SDS011;67728;53.122;12.776;2023-12-22T04:30:08;645.77;;;181.00;;
31091;SDS011;67728;53.122;12.776;2023-12-22T04:31:39;649.77;;;176.40;;
31091;SDS011;67728;53.122;12.776;2023-12-22T04:33:11;644.97;;;171.60;;
31091;SDS011;67728;53.122;12.776;2023-12-22T04:34:42;645.33;;;174.97;;
31091;SDS011;67728;53.122;12.776;2023-12-22T04:36:13;641.53;;;170.23;;
31091;SDS011;67728;53.122;12.776;2023-12-22T04:37:45;650.40;;;174.20;;
31091;SDS011;67728;53.122;12.776;2023-12-22T04:39:16;639.53;;;171.40;;
31091;SDS011;67728;53.122;12.776;2023-12-22T04:40:49;644.37;;;175.57;;
31091;SDS011;67728;53.122;12.776;2023-12-22T04:42:19;650.97;;;175.07;;
31091;SDS011;67728;53.122;12.776;2023-12-22T04:43:51;646.90;;;170.03;;
31091;SDS011;67728;53.122;12.776;2023-12-22T04:45:21;648.30;;;171.97;;
31091;SDS011;67728;53.122;12.776;2023-12-22T04:46:53;644.90;;;172.17;;
31091;SDS011;67728;53.122;12.776;2023-12-22T04:48:23;647.83;;;175.47;;
31091;SDS011;67728;53.122;12.776;2023-12-22T04:49:55;648.83;;;180.37;;
31091;SDS011;67728;53.122;12.776;2023-12-22T04:51:26;644.63;;;175.43;;
31091;SDS011;67728;53.122;12.776;2023-12-22T04:52:58;644.53;;;176.23;;
31091;SDS011;67728;53.122;12.776;2023-12-22T04:54:28;654.73;;;187.10;;
31091;SDS011;67728;53.122;12.776;2023-12-22T04:56:01;685.27;;;183.57;;
31091;SDS011;67728;53.122;12.776;2023-12-22T04:57:33;655.37;;;181.13;;
31091;SDS011;67728;53.122;12.776;2023-12-22T04:59:03;641.77;;;173.97;;
31091;SDS011;67728;53.122;12.776;2023-12-22T05:00:35;654.37;;;188.50;;
31091;SDS011;67728;53.122;12.776;2023-12-22T05:02:06;639.03;;;169.07;;
31091;SDS011;67728;53.122;12.776;2023-12-22T05:03:37;640.50;;;174.93;;
31091;SDS011;67728;53.122;12.776;2023-12-22T05:05:08;647.53;;;177.87;;
31091;SDS011;67728;53.122;12.776;2023-12-22T05:06:41;643.20;;;175.40;;
31091;SDS011;67728;53.122;12.776;2023-12-22T05:08:12;652.97;;;170.53;;
31091;SDS011;67728;53.122;12.776;2023-12-22T05:09:45;658.70;;;168.50;;
31091;SDS011;67728;53.122;12.776;2023-12-22T05:11:17;685.13;;;172.77;;
31091;SDS011;67728;53.122;12.776;2023-12-22T05:12:48;646.50;;;172.83;;
31091;SDS011;67728;53.122;12.776;2023-12-22T05:14:20;638.87;;;177.20;;
31091;SDS011;67728;53.122;12.776;2023-12-22T05:15:50;642.77;;;179.10;;
31091;SDS011;67728;53.122;12.776;2023-12-22T05:17:22;641.97;;;167.50;;
31091;SDS011;67728;53.122;12.776;2023-12-22T05:18:53;647.00;;;181.23;;
31091;SDS011;67728;53.122;12.776;2023-12-22T05:20:24;646.13;;;178.10;;
31091;SDS011;67728;53.122;12.776;2023-12-22T05:21:55;646.73;;;178.27;;
31091;SDS011;67728;53.122;12.776;2023-12-22T05:23:26;640.17;;;174.33;;
31091;SDS011;67728;53.122;12.776;2023-12-22T05:24:57;636.20;;;169.83;;
31091;SDS011;67728;53.122;12.776;2023-12-22T05:26:30;633.90;;;163.23;;
31091;SDS011;67728;53.122;12.776;2023-12-22T05:28:02;637.57;;;164.57;;
31091;SDS011;67728;53.122;12.776;2023-12-22T05:29:34;636.50;;;166.50;;
31091;SDS011;67728;53.122;12.776;2023-12-22T05:31:04;635.07;;;165.07;;
31091;SDS011;67728;53.122;12.776;2023-12-22T05:32:36;638.57;;;173.03;;
31091;SDS011;67728;53.122;12.776;2023-12-22T05:34:06;642.17;;;174.43;;
31091;SDS011;67728;53.122;12.776;2023-12-22T05:35:40;646.07;;;172.07;;
31091;SDS011;67728;53.122;12.776;2023-12-22T05:37:10;644.13;;;172.30;;
31091;SDS011;67728;53.122;12.776;2023-12-22T05:38:42;647.40;;;172.93;;
31091;SDS011;67728;53.122;12.776;2023-12-22T05:40:13;639.43;;;167.90;;
31091;SDS011;67728;53.122;12.776;2023-12-22T05:41:46;641.27;;;169.77;;
31091;SDS011;67728;53.122;12.776;2023-12-22T05:43:18;643.40;;;170.17;;
31091;SDS011;67728;53.122;12.776;2023-12-22T05:44:50;640.53;;;170.27;;
31091;SDS011;67728;53.122;12.776;2023-12-22T05:46:21;691.43;;;173.67;;
31091;SDS011;67728;53.122;12.776;2023-12-22T05:47:52;641.13;;;169.23;;
31091;SDS011;67728;53.122;12.776;2023-12-22T05:49:23;634.30;;;170.77;;
31091;SDS011;67728;53.122;12.776;2023-12-22T05:50:55;633.63;;;164.40;;
31091;SDS011;67728;53.122;12.776;2023-12-22T05:52:27;636.10;;;169.93;;
31091;SDS011;67728;53.122;12.776;2023-12-22T05:53:58;640.80;;;172.47;;
31091;SDS011;67728;53.122;12.776;2023-12-22T05:55:29;642.50;;;176.50;;
31091;SDS011;67728;53.122;12.776;2023-12-22T05:57:01;638.63;;;171.30;;
31091;SDS011;67728;53.122;12.776;2023-12-22T05:58:35;633.93;;;168.30;;
31091;SDS011;67728;53.122;12.776;2023-12-22T06:00:06;633.30;;;164.70;;
31091;SDS011;67728;53.122;12.776;2023-12-22T06:01:40;634.50;;;165.23;;
31091;SDS011;67728;53.122;12.776;2023-12-22T06:03:11;637.03;;;165.23;;
31091;SDS011;67728;53.122;12.776;2023-12-22T06:04:42;637.67;;;168.20;;
31091;SDS011;67728;53.122;12.776;2023-12-22T06:06:14;638.53;;;168.70;;
31091;SDS011;67728;53.122;12.776;2023-12-22T06:07:44;642.17;;;156.83;;
31091;SDS011;67728;53.122;12.776;2023-12-22T06:09:16;636.43;;;162.73;;
31091;SDS011;67728;53.122;12.776;2023-12-22T06:10:48;640.30;;;164.23;;
31091;SDS011;67728;53.122;12.776;2023-12-22T06:12:21;640.07;;;163.80;;
31091;SDS011;67728;53.122;12.776;2023-12-22T06:13:51;641.50;;;171.70;;
31091;SDS011;67728;53.122;12.776;2023-12-22T06:15:23;636.37;;;163.30;;
31091;SDS011;67728;53.122;12.776;2023-12-22T06:16:54;644.43;;;169.53;;
31091;SDS011;67728;53.122;12.776;2023-12-22T06:18:27;650.90;;;172.57;;
31091;SDS011;67728;53.122;12.776;2023-12-22T06:19:59;652.03;;;171.77;;
31091;SDS011;67728;53.122;12.776;2023-12-22T06:21:31;690.80;;;168.53;;
31091;SDS011;67728;53.122;12.776;2023-12-22T06:23:01;642.97;;;168.07;;
31091;SDS011;67728;53.122;12.776;2023-12-22T06:24:34;635.87;;;155.50;;
31091;SDS011;67728;53.122;12.776;2023-12-22T06:26:07;642.87;;;167.67;;
31091;SDS011;67728;53.122;12.776;2023-12-22T06:27:41;638.27;;;164.63;;
31091;SDS011;67728;53.122;12.776;2023-12-22T06:29:12;636.03;;;160.17;;
31091;SDS011;67728;53.122;12.776;2023-12-22T06:30:44;636.73;;;160.40;;
31091;SDS011;67728;53.122;12.776;2023-12-22T06:32:17;649.93;;;166.90;;
31091;SDS011;67728;53.122;12.776;2023-12-22T06:33:49;633.40;;;156.40;;
31091;SDS011;67728;53.122;12.776;2023-12-22T06:35:20;638.40;;;160.53;;
31091;SDS011;67728;53.122;12.776;2023-12-22T06:36:55;630.67;;;154.73;;
31091;SDS011;67728;53.122;12.776;2023-12-22T06:38:25;638.80;;;158.83;;
31091;SDS011;67728;53.122;12.776;2023-12-22T06:39:57;624.53;;;147.27;;
31091;SDS011;67728;53.122;12.776;2023-12-22T06:41:29;621.00;;;149.90;;
31091;SDS011;67728;53.122;12.776;2023-12-22T06:43:03;619.67;;;146.97;;
31091;SDS011;67728;53.122;12.776;2023-12-22T06:44:34;624.57;;;147.87;;
31091;SDS011;67728;53.122;12.776;2023-12-22T06:46:13;618.17;;;147.87;;
31091;SDS011;67728;53.122;12.776;2023-12-22T06:47:45;618.53;;;147.20;;
31091;SDS011;67728;53.122;12.776;2023-12-22T06:49:17;622.90;;;151.90;;
31091;SDS011;67728;53.122;12.776;2023-12-22T06:50:48;619.60;;;149.80;;
31091;SDS011;67728;53.122;12.776;2023-12-22T06:52:19;620.30;;;149.77;;
31091;SDS011;67728;53.122;12.776;2023-12-22T06:53:50;619.97;;;146.53;;
31091;SDS011;67728;53.122;12.776;2023-12-22T06:55:22;620.13;;;149.97;;
31091;SDS011;67728;53.122;12.776;2023-12-22T06:56:52;675.83;;;151.37;;
31091;SDS011;67728;53.122;12.776;2023-12-22T06:58:26;620.33;;;148.07;;
31091;SDS011;67728;53.122;12.776;2023-12-22T06:59:56;621.33;;;148.83;;
31091;SDS011;67728;53.122;12.776;2023-12-22T07:01:29;617.60;;;141.73;;
31091;SDS011;67728;53.122;12.776;2023-12-22T07:03:00;619.87;;;143.13;;
31091;SDS011;67728;53.122;12.776;2023-12-22T07:04:31;620.07;;;145.07;;
31091;SDS011;67728;53.122;12.776;2023-12-22T07:06:02;621.07;;;147.17;;
31091;SDS011;67728;53.122;12.776;2023-12-22T07:07:34;619.73;;;146.73;;
31091;SDS011;67728;53.122;12.776;2023-12-22T07:11:04;621.37;;;145.27;;
31091;SDS011;67728;53.122;12.776;2023-12-22T07:12:35;630.93;;;146.53;;
31091;SDS011;67728;53.122;12.776;2023-12-22T07:14:07;649.80;;;151.23;;
31091;SDS011;67728;53.122;12.776;2023-12-22T07:15:38;658.73;;;151.37;;
31091;SDS011;67728;53.122;12.776;2023-12-22T07:17:10;670.23;;;138.23;;
31091;SDS011;67728;53.122;12.776;2023-12-22T07:18:42;637.43;;;135.20;;
31091;SDS011;67728;53.122;12.776;2023-12-22T07:20:13;639.80;;;152.43;;
31091;SDS011;67728;53.122;12.776;2023-12-22T07:21:44;643.53;;;137.73;;
31091;SDS011;67728;53.122;12.776;2023-12-22T07:23:15;660.00;;;152.97;;
31091;SDS011;67728;53.122;12.776;2023-12-22T07:24:47;623.80;;;132.67;;
31091;SDS011;67728;53.122;12.776;2023-12-22T07:26:19;633.90;;;149.57;;
31091;SDS011;67728;53.122;12.776;2023-12-22T07:27:51;648.43;;;152.07;;
31091;SDS011;67728;53.122;12.776;2023-12-22T07:29:24;629.13;;;150.63;;
31091;SDS011;67728;53.122;12.776;2023-12-22T07:30:55;647.73;;;156.27;;
31091;SDS011;67728;53.122;12.776;2023-12-22T07:32:27;636.03;;;152.93;;
31091;SDS011;67728;53.122;12.776;2023-12-22T07:33:57;631.00;;;150.57;;
31091;SDS011;67728;53.122;12.776;2023-12-22T07:35:29;630.23;;;155.93;;
31091;SDS011;67728;53.122;12.776;2023-12-22T07:37:00;687.40;;;158.90;;
31091;SDS011;67728;53.122;12.776;2023-12-22T07:38:31;641.40;;;152.97;;
31091;SDS011;67728;53.122;12.776;2023-12-22T07:40:02;629.73;;;155.87;;
31091;SDS011;67728;53.122;12.776;2023-12-22T07:41:34;635.30;;;158.13;;
31091;SDS011;67728;53.122;12.776;2023-12-22T07:43:05;648.00;;;156.77;;
31091;SDS011;67728;53.122;12.776;2023-12-22T07:44:37;648.33;;;161.93;;
31091;SDS011;67728;53.122;12.776;2023-12-22T07:46:16;647.33;;;168.07;;
31091;SDS011;67728;53.122;12.776;2023-12-22T07:47:49;649.80;;;177.90;;
31091;SDS011;67728;53.122;12.776;2023-12-22T07:49:20;658.40;;;178.87;;
31091;SDS011;67728;53.122;12.776;2023-12-22T07:50:52;685.33;;;171.73;;
31091;SDS011;67728;53.122;12.776;2023-12-22T07:52:24;652.03;;;169.50;;
31091;SDS011;67728;53.122;12.776;2023-12-22T07:53:54;673.20;;;172.70;;
31091;SDS011;67728;53.122;12.776;2023-12-22T07:55:26;683.90;;;176.53;;
31091;SDS011;67728;53.122;12.776;2023-12-22T07:56:57;669.83;;;176.53;;
31091;SDS011;67728;53.122;12.776;2023-12-22T07:58:28;683.93;;;187.57;;
31091;SDS011;67728;53.122;12.776;2023-12-22T08:00:00;690.17;;;181.43;;
31091;SDS011;67728;53.122;12.776;2023-12-22T08:01:33;668.53;;;188.57;;
31091;SDS011;67728;53.122;12.776;2023-12-22T08:03:04;642.13;;;172.13;;
31091;SDS011;67728;53.122;12.776;2023-12-22T08:04:35;661.03;;;184.87;;
31091;SDS011;67728;53.122;12.776;2023-12-22T08:06:06;645.07;;;173.23;;
31091;SDS011;67728;53.122;12.776;2023-12-22T08:07:38;644.87;;;169.57;;
31091;SDS011;67728;53.122;12.776;2023-12-22T08:09:08;648.70;;;178.73;;
31091;SDS011;67728;53.122;12.776;2023-12-22T08:10:40;656.73;;;183.93;;
31091;SDS011;67728;53.122;12.776;2023-12-22T08:12:12;643.33;;;167.10;;
31091;SDS011;67728;53.122;12.776;2023-12-22T08:13:42;653.77;;;178.07;;
31091;SDS011;67728;53.122;12.776;2023-12-22T08:15:15;653.60;;;174.53;;
31091;SDS011;67728;53.122;12.776;2023-12-22T08:16:47;643.60;;;172.77;;
31091;SDS011;67728;53.122;12.776;2023-12-22T08:18:17;651.27;;;182.53;;
31091;SDS011;67728;53.122;12.776;2023-12-22T08:19:50;655.33;;;183.30;;
31091;SDS011;67728;53.122;12.776;2023-12-22T08:21:21;648.87;;;179.43;;
31091;SDS011;67728;53.122;12.776;2023-12-22T08:22:52;653.13;;;174.97;;
31091;SDS011;67728;53.122;12.776;2023-12-22T08:24:23;653.80;;;183.23;;
31091;SDS011;67728;53.122;12.776;2023-12-22T08:25:55;648.13;;;177.07;;
31091;SDS011;67728;53.122;12.776;2023-12-22T08:27:27;650.10;;;184.60;;
31091;SDS011;67728;53.122;12.776;2023-12-22T08:28:59;650.73;;;177.57;;
31091;SDS011;67728;53.122;12.776;2023-12-22T08:30:31;649.80;;;179.47;;
31091;SDS011;67728;53.122;12.776;2023-12-22T08:32:03;669.80;;;188.27;;
31091;SDS011;67728;53.122;12.776;2023-12-22T08:33:35;671.60;;;188.17;;
31091;SDS011;67728;53.122;12.776;2023-12-22T08:35:06;663.23;;;186.27;;